sensor_id;sensor_type;location;lat;lon;timestamp;pressure;altitude;pressure_sealevel;temperature;humidity
40384;BME280;26097;42.366;23.818;2023-02-18T00:00:19;94769.47;;;0.33;76.55
40384;BME280;26097;42.366;23.818;2023-02-18T00:03:20;94764.94;;;0.42;77.22
40384;BME280;26097;42.366;23.818;2023-02-18T00:06:33;94764.38;;;0.64;74.72
40384;BME280;26097;42.366;23.818;2023-02-18T00:09:33;94762.31;;;0.79;73.73
40384;BME280;26097;42.366;23.818;2023-02-18T00:12:34;94763.81;;;0.86;72.13
40384;BME280;26097;42.366;23.818;2023-02-18T00:15:35;94751.00;;;0.84;72.77
40384;BME280;26097;42.366;23.818;2023-02-18T00:18:37;94752.84;;;0.81;73.14
40384;BME280;26097;42.366;23.818;2023-02-18T00:21:38;94748.63;;;0.78;72.94
40384;BME280;26097;42.366;23.818;2023-02-18T00:24:38;94738.84;;;0.91;72.63
40384;BME280;26097;42.366;23.818;2023-02-18T00:27:38;94736.56;;;0.82;72.80
40384;BME280;26097;42.366;23.818;2023-02-18T00:30:42;94732.94;;;0.89;73.69
40384;BME280;26097;42.366;23.818;2023-02-18T00:33:42;94736.09;;;0.97;72.18
40384;BME280;26097;42.366;23.818;2023-02-18T00:36:43;94721.88;;;1.74;69.20
40384;BME280;26097;42.366;23.818;2023-02-18T00:39:43;94718.34;;;1.78;68.28
40384;BME280;26097;42.366;23.818;2023-02-18T00:42:43;94712.72;;;1.65;68.66
40384;BME280;26097;42.366;23.818;2023-02-18T00:45:44;94711.47;;;1.50;69.35
40384;BME280;26097;42.366;23.818;2023-02-18T00:48:44;94699.13;;;2.16;66.53
40384;BME280;26097;42.366;23.818;2023-02-18T00:51:45;94688.94;;;1.87;67.32
40384;BME280;26097;42.366;23.818;2023-02-18T00:54:45;94684.59;;;2.14;66.25
40384;BME280;26097;42.366;23.818;2023-02-18T00:57:45;94668.25;;;2.17;65.73
40384;BME280;26097;42.366;23.818;2023-02-18T01:00:46;94657.13;;;2.17;65.62
40384;BME280;26097;42.366;23.818;2023-02-18T01:03:47;94651.97;;;2.17;65.56
40384;BME280;26097;42.366;23.818;2023-02-18T01:06:47;94651.34;;;2.10;66.53
40384;BME280;26097;42.366;23.818;2023-02-18T01:09:48;94643.28;;;2.70;63.41
40384;BME280;26097;42.366;23.818;2023-02-18T01:12:48;94645.34;;;2.60;63.69
40384;BME280;26097;42.366;23.818;2023-02-18T01:15:49;94643.97;;;2.50;63.56
40384;BME280;26097;42.366;23.818;2023-02-18T01:18:50;94635.69;;;2.89;61.71
40384;BME280;26097;42.366;23.818;2023-02-18T01:21:50;94623.72;;;2.88;62.64
40384;BME280;26097;42.366;23.818;2023-02-18T01:24:51;94618.38;;;3.39;60.10
40384;BME280;26097;42.366;23.818;2023-02-18T01:27:52;94634.06;;;3.77;57.01
40384;BME280;26097;42.366;23.818;2023-02-18T01:30:52;94624.72;;;4.16;56.56
40384;BME280;26097;42.366;23.818;2023-02-18T01:33:53;94626.41;;;3.96;56.08
40384;BME280;26097;42.366;23.818;2023-02-18T01:36:54;94630.50;;;4.42;56.08
40384;BME280;26097;42.366;23.818;2023-02-18T01:39:54;94630.59;;;4.20;56.45
40384;BME280;26097;42.366;23.818;2023-02-18T01:42:56;94630.66;;;4.39;56.14
40384;BME280;26097;42.366;23.818;2023-02-18T01:48:59;94627.25;;;4.97;53.80
40384;BME280;26097;42.366;23.818;2023-02-18T01:52:22;94621.47;;;5.48;49.76
40384;BME280;26097;42.366;23.818;2023-02-18T01:55:23;94635.19;;;6.40;47.77
40384;BME280;26097;42.366;23.818;2023-02-18T01:58:24;94626.56;;;7.07;45.63
40384;BME280;26097;42.366;23.818;2023-02-18T02:01:25;94621.66;;;7.50;44.67
40384;BME280;26097;42.366;23.818;2023-02-18T02:04:26;94636.03;;;7.40;45.45
40384;BME280;26097;42.366;23.818;2023-02-18T02:07:27;94635.78;;;7.28;45.47
40384;BME280;26097;42.366;23.818;2023-02-18T02:10:39;94636.84;;;7.24;44.88
40384;BME280;26097;42.366;23.818;2023-02-18T02:13:55;94648.16;;;7.23;44.94
40384;BME280;26097;42.366;23.818;2023-02-18T02:20:59;94639.78;;;7.66;43.15
40384;BME280;26097;42.366;23.818;2023-02-18T02:27:28;94653.22;;;6.93;47.07
40384;BME280;26097;42.366;23.818;2023-02-18T02:30:46;94649.25;;;6.69;46.39
40384;BME280;26097;42.366;23.818;2023-02-18T02:37:34;94662.47;;;7.47;44.49
40384;BME280;26097;42.366;23.818;2023-02-18T02:40:51;94657.41;;;7.92;42.63
40384;BME280;26097;42.366;23.818;2023-02-18T02:47:26;94653.69;;;7.65;43.05
40384;BME280;26097;42.366;23.818;2023-02-18T02:50:50;94647.75;;;7.47;43.72
40384;BME280;26097;42.366;23.818;2023-02-18T02:53:52;94663.94;;;7.03;45.51
40384;BME280;26097;42.366;23.818;2023-02-18T03:00:09;94664.81;;;6.52;47.92
40384;BME280;26097;42.366;23.818;2023-02-18T03:19:19;94647.06;;;5.54;49.02
40384;BME280;26097;42.366;23.818;2023-02-18T03:22:29;94633.63;;;5.46;49.14
40384;BME280;26097;42.366;23.818;2023-02-18T03:25:31;94645.25;;;5.37;50.00
40384;BME280;26097;42.366;23.818;2023-02-18T03:28:34;94641.47;;;5.25;50.08
40384;BME280;26097;42.366;23.818;2023-02-18T03:31:36;94642.47;;;5.23;50.63
40384;BME280;26097;42.366;23.818;2023-02-18T03:34:41;94653.06;;;5.17;50.90
40384;BME280;26097;42.366;23.818;2023-02-18T03:37:50;94654.47;;;5.05;51.32
40384;BME280;26097;42.366;23.818;2023-02-18T03:40:52;94662.13;;;4.87;51.66
40384;BME280;26097;42.366;23.818;2023-02-18T03:44:04;94671.22;;;4.96;51.45
40384;BME280;26097;42.366;23.818;2023-02-18T03:47:05;94678.78;;;5.00;51.38
40384;BME280;26097;42.366;23.818;2023-02-18T03:50:06;94693.22;;;5.05;51.81
40384;BME280;26097;42.366;23.818;2023-02-18T03:53:06;94702.94;;;4.99;52.09
40384;BME280;26097;42.366;23.818;2023-02-18T03:56:07;94709.50;;;5.07;52.07
40384;BME280;26097;42.366;23.818;2023-02-18T03:59:08;94714.25;;;4.97;52.33
40384;BME280;26097;42.366;23.818;2023-02-18T04:02:08;94723.31;;;4.86;52.41
40384;BME280;26097;42.366;23.818;2023-02-18T04:05:09;94735.69;;;4.78;52.55
40384;BME280;26097;42.366;23.818;2023-02-18T04:08:09;94724.22;;;4.65;53.24
40384;BME280;26097;42.366;23.818;2023-02-18T04:11:10;94730.34;;;4.41;53.64
40384;BME280;26097;42.366;23.818;2023-02-18T04:14:12;94733.28;;;4.32;54.39
40384;BME280;26097;42.366;23.818;2023-02-18T04:17:13;94737.47;;;4.36;54.97
40384;BME280;26097;42.366;23.818;2023-02-18T04:20:13;94741.00;;;4.34;54.49
40384;BME280;26097;42.366;23.818;2023-02-18T04:23:15;94740.16;;;4.33;54.80
40384;BME280;26097;42.366;23.818;2023-02-18T04:26:16;94736.00;;;4.29;54.94
40384;BME280;26097;42.366;23.818;2023-02-18T04:29:16;94724.69;;;4.33;55.10
40384;BME280;26097;42.366;23.818;2023-02-18T04:32:16;94727.97;;;3.94;56.48
40384;BME280;26097;42.366;23.818;2023-02-18T04:35:17;94720.16;;;3.51;57.19
40384;BME280;26097;42.366;23.818;2023-02-18T04:38:17;94712.09;;;3.36;57.96
40384;BME280;26097;42.366;23.818;2023-02-18T04:41:18;94709.69;;;3.08;58.75
40384;BME280;26097;42.366;23.818;2023-02-18T04:44:18;94704.78;;;3.25;58.20
40384;BME280;26097;42.366;23.818;2023-02-18T04:47:19;94705.56;;;3.04;58.74
40384;BME280;26097;42.366;23.818;2023-02-18T04:50:20;94702.50;;;2.68;60.67
40384;BME280;26097;42.366;23.818;2023-02-18T04:53:21;94701.88;;;2.62;60.48
40384;BME280;26097;42.366;23.818;2023-02-18T04:56:21;94700.47;;;2.53;61.03
40384;BME280;26097;42.366;23.818;2023-02-18T04:59:22;94709.63;;;2.36;61.23
40384;BME280;26097;42.366;23.818;2023-02-18T05:02:22;94713.97;;;2.60;61.18
40384;BME280;26097;42.366;23.818;2023-02-18T05:05:23;94707.78;;;2.65;60.30
40384;BME280;26097;42.366;23.818;2023-02-18T05:08:23;94697.38;;;2.92;59.50
40384;BME280;26097;42.366;23.818;2023-02-18T05:11:24;94703.88;;;2.79;59.83
40384;BME280;26097;42.366;23.818;2023-02-18T05:14:24;94700.81;;;2.43;60.84
40384;BME280;26097;42.366;23.818;2023-02-18T05:17:24;94705.78;;;2.23;61.87
40384;BME280;26097;42.366;23.818;2023-02-18T05:20:25;94712.22;;;2.09;62.27
40384;BME280;26097;42.366;23.818;2023-02-18T05:23:25;94707.28;;;2.03;62.62
40384;BME280;26097;42.366;23.818;2023-02-18T05:26:25;94709.25;;;1.95;62.89
40384;BME280;26097;42.366;23.818;2023-02-18T05:29:26;94721.78;;;2.82;61.58
40384;BME280;26097;42.366;23.818;2023-02-18T05:32:27;94709.47;;;3.38;59.86
40384;BME280;26097;42.366;23.818;2023-02-18T05:35:27;94709.34;;;3.63;59.15
40384;BME280;26097;42.366;23.818;2023-02-18T05:38:28;94694.28;;;3.76;58.61
40384;BME280;26097;42.366;23.818;2023-02-18T05:41:28;94692.47;;;3.56;59.06
40384;BME280;26097;42.366;23.818;2023-02-18T05:44:28;94696.16;;;3.71;58.71
40384;BME280;26097;42.366;23.818;2023-02-18T05:47:29;94688.25;;;3.53;59.33
40384;BME280;26097;42.366;23.818;2023-02-18T05:50:29;94694.97;;;3.80;58.82
40384;BME280;26097;42.366;23.818;2023-02-18T05:53:30;94695.53;;;3.88;56.34
40384;BME280;26097;42.366;23.818;2023-02-18T05:56:31;94705.72;;;4.55;55.83
40384;BME280;26097;42.366;23.818;2023-02-18T05:59:32;94701.03;;;4.84;54.99
40384;BME280;26097;42.366;23.818;2023-02-18T06:02:32;94714.94;;;5.00;54.07
40384;BME280;26097;42.366;23.818;2023-02-18T06:05:33;94712.09;;;5.07;53.99
40384;BME280;26097;42.366;23.818;2023-02-18T06:08:33;94715.97;;;5.17;53.05
40384;BME280;26097;42.366;23.818;2023-02-18T06:11:35;94720.28;;;5.55;51.20
40384;BME280;26097;42.366;23.818;2023-02-18T06:14:35;94717.19;;;5.66;51.87
40384;BME280;26097;42.366;23.818;2023-02-18T06:17:36;94711.13;;;5.67;52.04
40384;BME280;26097;42.366;23.818;2023-02-18T06:20:38;94705.13;;;5.66;52.70
40384;BME280;26097;42.366;23.818;2023-02-18T06:23:38;94703.25;;;5.70;50.97
40384;BME280;26097;42.366;23.818;2023-02-18T06:26:39;94698.00;;;6.79;46.20
40384;BME280;26097;42.366;23.818;2023-02-18T06:29:39;94700.06;;;7.55;44.56
40384;BME280;26097;42.366;23.818;2023-02-18T06:32:39;94700.31;;;7.67;43.88
40384;BME280;26097;42.366;23.818;2023-02-18T06:35:40;94700.13;;;7.70;44.59
40384;BME280;26097;42.366;23.818;2023-02-18T06:38:43;94700.22;;;8.31;41.15
40384;BME280;26097;42.366;23.818;2023-02-18T06:41:43;94699.38;;;8.61;41.88
40384;BME280;26097;42.366;23.818;2023-02-18T06:44:44;94693.13;;;8.65;42.06
40384;BME280;26097;42.366;23.818;2023-02-18T06:47:44;94679.00;;;8.69;42.73
40384;BME280;26097;42.366;23.818;2023-02-18T06:50:44;94676.59;;;8.81;43.17
40384;BME280;26097;42.366;23.818;2023-02-18T06:53:45;94677.34;;;8.97;42.84
40384;BME280;26097;42.366;23.818;2023-02-18T06:56:45;94666.94;;;9.26;41.30
40384;BME280;26097;42.366;23.818;2023-02-18T06:59:46;94672.03;;;9.42;38.69
40384;BME280;26097;42.366;23.818;2023-02-18T07:02:46;94669.28;;;9.73;40.37
40384;BME280;26097;42.366;23.818;2023-02-18T07:05:46;94669.56;;;9.96;36.99
40384;BME280;26097;42.366;23.818;2023-02-18T07:08:47;94675.84;;;10.34;36.44
40384;BME280;26097;42.366;23.818;2023-02-18T07:11:47;94665.81;;;10.68;35.03
40384;BME280;26097;42.366;23.818;2023-02-18T07:14:48;94666.22;;;10.75;37.20
40384;BME280;26097;42.366;23.818;2023-02-18T07:17:51;94666.03;;;10.91;36.71
40384;BME280;26097;42.366;23.818;2023-02-18T07:20:52;94664.88;;;11.08;34.57
40384;BME280;26097;42.366;23.818;2023-02-18T07:23:52;94654.53;;;11.19;36.11
40384;BME280;26097;42.366;23.818;2023-02-18T07:26:52;94653.91;;;10.51;38.27
40384;BME280;26097;42.366;23.818;2023-02-18T07:29:53;94655.38;;;10.55;37.55
40384;BME280;26097;42.366;23.818;2023-02-18T07:32:54;94657.88;;;10.82;35.24
40384;BME280;26097;42.366;23.818;2023-02-18T07:35:55;94637.94;;;11.33;37.15
40384;BME280;26097;42.366;23.818;2023-02-18T07:38:56;94630.06;;;11.46;36.72
40384;BME280;26097;42.366;23.818;2023-02-18T07:41:56;94651.31;;;11.66;34.43
40384;BME280;26097;42.366;23.818;2023-02-18T07:44:57;94648.16;;;11.74;33.45
40384;BME280;26097;42.366;23.818;2023-02-18T07:47:57;94639.94;;;11.91;33.33
40384;BME280;26097;42.366;23.818;2023-02-18T07:50:57;94638.53;;;11.98;32.42
40384;BME280;26097;42.366;23.818;2023-02-18T07:53:58;94635.41;;;12.06;33.67
40384;BME280;26097;42.366;23.818;2023-02-18T07:56:58;94642.78;;;12.12;32.62
40384;BME280;26097;42.366;23.818;2023-02-18T07:59:58;94638.97;;;12.17;33.15
40384;BME280;26097;42.366;23.818;2023-02-18T08:02:59;94642.13;;;12.22;31.77
40384;BME280;26097;42.366;23.818;2023-02-18T08:06:00;94637.63;;;12.35;32.73
40384;BME280;26097;42.366;23.818;2023-02-18T08:09:01;94632.09;;;12.51;32.44
40384;BME280;26097;42.366;23.818;2023-02-18T08:12:05;94631.03;;;12.54;31.73
40384;BME280;26097;42.366;23.818;2023-02-18T08:15:06;94622.47;;;12.52;31.49
40384;BME280;26097;42.366;23.818;2023-02-18T08:18:08;94621.28;;;12.56;32.11
40384;BME280;26097;42.366;23.818;2023-02-18T08:21:14;94621.78;;;12.61;31.36
40384;BME280;26097;42.366;23.818;2023-02-18T08:24:15;94621.56;;;12.64;32.06
40384;BME280;26097;42.366;23.818;2023-02-18T08:27:16;94617.06;;;12.31;33.75
40384;BME280;26097;42.366;23.818;2023-02-18T08:30:16;94631.53;;;11.99;34.51
40384;BME280;26097;42.366;23.818;2023-02-18T08:33:17;94648.28;;;11.59;36.14
40384;BME280;26097;42.366;23.818;2023-02-18T08:36:18;94643.16;;;10.94;38.09
40384;BME280;26097;42.366;23.818;2023-02-18T08:39:19;94647.97;;;10.75;38.76
40384;BME280;26097;42.366;23.818;2023-02-18T08:42:19;94642.03;;;10.60;39.21
40384;BME280;26097;42.366;23.818;2023-02-18T08:45:20;94635.63;;;10.38;40.01
40384;BME280;26097;42.366;23.818;2023-02-18T08:48:20;94636.38;;;10.53;39.83
40384;BME280;26097;42.366;23.818;2023-02-18T08:51:21;94641.22;;;10.72;39.37
40384;BME280;26097;42.366;23.818;2023-02-18T08:54:22;94638.28;;;11.03;38.84
40384;BME280;26097;42.366;23.818;2023-02-18T08:57:22;94623.97;;;11.08;38.68
40384;BME280;26097;42.366;23.818;2023-02-18T09:00:23;94628.59;;;11.42;37.99
40384;BME280;26097;42.366;23.818;2023-02-18T09:03:24;94625.41;;;11.87;37.70
40384;BME280;26097;42.366;23.818;2023-02-18T09:06:26;94611.13;;;12.28;36.59
40384;BME280;26097;42.366;23.818;2023-02-18T09:09:26;94604.19;;;13.32;34.02
40384;BME280;26097;42.366;23.818;2023-02-18T09:12:27;94596.88;;;14.13;32.41
40384;BME280;26097;42.366;23.818;2023-02-18T09:15:27;94623.59;;;14.61;30.56
40384;BME280;26097;42.366;23.818;2023-02-18T09:18:28;94633.38;;;14.80;31.40
40384;BME280;26097;42.366;23.818;2023-02-18T09:21:28;94617.97;;;14.12;33.42
40384;BME280;26097;42.366;23.818;2023-02-18T09:24:29;94604.66;;;14.04;34.06
40384;BME280;26097;42.366;23.818;2023-02-18T09:27:29;94610.56;;;14.17;33.75
40384;BME280;26097;42.366;23.818;2023-02-18T09:30:30;94608.97;;;14.26;34.31
40384;BME280;26097;42.366;23.818;2023-02-18T09:33:30;94616.28;;;14.43;31.93
40384;BME280;26097;42.366;23.818;2023-02-18T09:36:30;94622.88;;;14.59;30.61
40384;BME280;26097;42.366;23.818;2023-02-18T09:39:31;94599.28;;;14.59;31.01
40384;BME280;26097;42.366;23.818;2023-02-18T09:42:34;94607.72;;;14.84;29.24
40384;BME280;26097;42.366;23.818;2023-02-18T09:45:36;94614.56;;;14.96;29.59
40384;BME280;26097;42.366;23.818;2023-02-18T09:48:47;94618.84;;;14.97;28.56
40384;BME280;26097;42.366;23.818;2023-02-18T09:51:48;94618.28;;;14.94;28.92
40384;BME280;26097;42.366;23.818;2023-02-18T09:54:49;94625.13;;;14.85;28.59
40384;BME280;26097;42.366;23.818;2023-02-18T09:57:53;94615.53;;;14.95;29.20
40384;BME280;26097;42.366;23.818;2023-02-18T10:04:42;94609.56;;;14.93;29.39
40384;BME280;26097;42.366;23.818;2023-02-18T10:07:45;94605.16;;;14.94;29.51
40384;BME280;26097;42.366;23.818;2023-02-18T10:10:47;94594.44;;;15.07;28.99
40384;BME280;26097;42.366;23.818;2023-02-18T10:13:48;94581.31;;;15.07;29.30
40384;BME280;26097;42.366;23.818;2023-02-18T10:16:50;94584.44;;;15.41;29.04
40384;BME280;26097;42.366;23.818;2023-02-18T10:19:53;94571.75;;;15.37;28.95
40384;BME280;26097;42.366;23.818;2023-02-18T10:22:57;94572.91;;;15.64;28.40
40384;BME280;26097;42.366;23.818;2023-02-18T10:26:01;94564.06;;;15.84;28.68
40384;BME280;26097;42.366;23.818;2023-02-18T10:29:02;94577.81;;;16.08;28.40
40384;BME280;26097;42.366;23.818;2023-02-18T10:32:32;94576.84;;;16.19;28.59
40384;BME280;26097;42.366;23.818;2023-02-18T10:39:17;94566.88;;;16.12;28.63
40384;BME280;26097;42.366;23.818;2023-02-18T10:51:36;94552.94;;;15.51;30.92
40384;BME280;26097;42.366;23.818;2023-02-18T10:54:58;94551.59;;;15.77;30.07
40384;BME280;26097;42.366;23.818;2023-02-18T10:57:58;94537.78;;;15.84;29.71
40384;BME280;26097;42.366;23.818;2023-02-18T11:01:02;94542.47;;;15.71;29.58
40384;BME280;26097;42.366;23.818;2023-02-18T11:04:16;94540.59;;;15.93;29.28
40384;BME280;26097;42.366;23.818;2023-02-18T11:07:20;94552.00;;;15.72;29.44
40384;BME280;26097;42.366;23.818;2023-02-18T11:10:33;94541.78;;;15.79;29.86
40384;BME280;26097;42.366;23.818;2023-02-18T11:13:34;94554.78;;;15.70;29.79
40384;BME280;26097;42.366;23.818;2023-02-18T11:16:45;94540.59;;;15.93;29.81
40384;BME280;26097;42.366;23.818;2023-02-18T11:19:55;94541.56;;;16.11;29.76
40384;BME280;26097;42.366;23.818;2023-02-18T11:23:17;94527.81;;;16.37;29.15
40384;BME280;26097;42.366;23.818;2023-02-18T11:26:28;94514.91;;;16.92;29.64
40384;BME280;26097;42.366;23.818;2023-02-18T11:29:30;94513.88;;;17.12;29.38
40384;BME280;26097;42.366;23.818;2023-02-18T11:32:34;94523.03;;;17.08;29.15
40384;BME280;26097;42.366;23.818;2023-02-18T11:35:36;94511.03;;;16.86;29.20
40384;BME280;26097;42.366;23.818;2023-02-18T11:38:44;94497.09;;;16.76;29.56
40384;BME280;26097;42.366;23.818;2023-02-18T11:41:52;94523.94;;;16.41;31.20
40384;BME280;26097;42.366;23.818;2023-02-18T11:44:57;94511.09;;;16.09;32.69
40384;BME280;26097;42.366;23.818;2023-02-18T11:48:00;94497.66;;;15.63;33.75
40384;BME280;26097;42.366;23.818;2023-02-18T11:51:01;94501.53;;;15.78;33.48
40384;BME280;26097;42.366;23.818;2023-02-18T11:57:23;94495.19;;;15.91;33.18
40384;BME280;26097;42.366;23.818;2023-02-18T12:03:46;94487.09;;;16.41;31.41
40384;BME280;26097;42.366;23.818;2023-02-18T12:06:52;94478.16;;;16.62;31.24
40384;BME280;26097;42.366;23.818;2023-02-18T12:10:00;94479.78;;;16.73;30.44
40384;BME280;26097;42.366;23.818;2023-02-18T12:13:03;94472.94;;;16.90;30.48
40384;BME280;26097;42.366;23.818;2023-02-18T12:43:43;94449.16;;;16.44;30.83
40384;BME280;26097;42.366;23.818;2023-02-18T13:04:11;94428.44;;;16.31;32.17
40384;BME280;26097;42.366;23.818;2023-02-18T13:07:26;94414.03;;;16.35;32.36
40384;BME280;26097;42.366;23.818;2023-02-18T13:14:16;94410.41;;;16.64;32.08
40384;BME280;26097;42.366;23.818;2023-02-18T13:17:18;94425.53;;;16.62;32.02
40384;BME280;26097;42.366;23.818;2023-02-18T13:20:29;94425.53;;;16.62;32.13
40384;BME280;26097;42.366;23.818;2023-02-18T13:23:37;94422.34;;;16.59;31.91
40384;BME280;26097;42.366;23.818;2023-02-18T13:26:39;94413.25;;;16.53;31.93
40384;BME280;26097;42.366;23.818;2023-02-18T13:39:30;94423.94;;;17.07;31.77
40384;BME280;26097;42.366;23.818;2023-02-18T13:42:35;94431.72;;;17.27;32.07
40384;BME280;26097;42.366;23.818;2023-02-18T13:45:38;94414.03;;;16.91;32.17
40384;BME280;26097;42.366;23.818;2023-02-18T13:51:49;94412.38;;;16.90;32.59
40384;BME280;26097;42.366;23.818;2023-02-18T13:54:53;94405.56;;;17.16;32.65
40384;BME280;26097;42.366;23.818;2023-02-18T13:57:54;94415.31;;;17.15;32.26
40384;BME280;26097;42.366;23.818;2023-02-18T14:01:06;94409.03;;;16.88;32.78
40384;BME280;26097;42.366;23.818;2023-02-18T14:04:55;94412.00;;;16.57;33.01
40384;BME280;26097;42.366;23.818;2023-02-18T14:17:30;94401.25;;;16.03;33.90
40384;BME280;26097;42.366;23.818;2023-02-18T14:26:48;94408.44;;;15.81;34.14
40384;BME280;26097;42.366;23.818;2023-02-18T14:29:50;94415.09;;;15.75;34.23
40384;BME280;26097;42.366;23.818;2023-02-18T14:32:55;94413.97;;;15.68;34.39
40384;BME280;26097;42.366;23.818;2023-02-18T14:39:35;94416.63;;;15.58;34.34
40384;BME280;26097;42.366;23.818;2023-02-18T14:52:33;94414.56;;;15.42;34.35
40384;BME280;26097;42.366;23.818;2023-02-18T14:55:38;94422.44;;;15.22;34.48
40384;BME280;26097;42.366;23.818;2023-02-18T14:59:01;94413.97;;;14.99;35.01
40384;BME280;26097;42.366;23.818;2023-02-18T15:02:02;94417.13;;;14.83;35.17
40384;BME280;26097;42.366;23.818;2023-02-18T15:05:17;94423.59;;;14.79;35.08
40384;BME280;26097;42.366;23.818;2023-02-18T15:08:19;94411.78;;;14.63;34.87
40384;BME280;26097;42.366;23.818;2023-02-18T15:11:33;94419.75;;;14.52;35.40
40384;BME280;26097;42.366;23.818;2023-02-18T15:14:40;94407.97;;;14.36;35.75
40384;BME280;26097;42.366;23.818;2023-02-18T15:17:45;94417.53;;;14.16;36.13
40384;BME280;26097;42.366;23.818;2023-02-18T15:20:47;94409.34;;;14.09;35.61
40384;BME280;26097;42.366;23.818;2023-02-18T15:23:48;94411.53;;;14.04;36.08
40384;BME280;26097;42.366;23.818;2023-02-18T15:26:49;94410.41;;;13.97;36.20
40384;BME280;26097;42.366;23.818;2023-02-18T15:29:55;94415.97;;;13.82;36.40
40384;BME280;26097;42.366;23.818;2023-02-18T15:32:58;94409.44;;;13.77;36.58
40384;BME280;26097;42.366;23.818;2023-02-18T15:36:05;94401.34;;;13.59;36.63
40384;BME280;26097;42.366;23.818;2023-02-18T15:39:05;94395.19;;;13.48;36.71
40384;BME280;26097;42.366;23.818;2023-02-18T15:42:18;94387.81;;;13.42;36.46
40384;BME280;26097;42.366;23.818;2023-02-18T15:45:24;94390.84;;;13.26;36.85
40384;BME280;26097;42.366;23.818;2023-02-18T15:48:31;94387.78;;;13.21;36.98
40384;BME280;26097;42.366;23.818;2023-02-18T15:51:34;94389.25;;;13.13;36.94
40384;BME280;26097;42.366;23.818;2023-02-18T15:54:36;94392.16;;;12.99;37.26
40384;BME280;26097;42.366;23.818;2023-02-18T15:57:40;94387.78;;;12.88;37.68
40384;BME280;26097;42.366;23.818;2023-02-18T16:00:54;94390.81;;;12.72;38.06
40384;BME280;26097;42.366;23.818;2023-02-18T16:03:55;94390.47;;;12.54;38.64
40384;BME280;26097;42.366;23.818;2023-02-18T16:06:56;94393.47;;;12.49;38.56
40384;BME280;26097;42.366;23.818;2023-02-18T16:13:18;94389.75;;;12.52;38.82
40384;BME280;26097;42.366;23.818;2023-02-18T16:16:23;94387.53;;;12.36;39.05
40384;BME280;26097;42.366;23.818;2023-02-18T16:19:26;94397.03;;;12.25;39.46
40384;BME280;26097;42.366;23.818;2023-02-18T16:25:45;94394.78;;;12.21;39.79
40384;BME280;26097;42.366;23.818;2023-02-18T16:28:49;94390.50;;;12.08;39.90
40384;BME280;26097;42.366;23.818;2023-02-18T16:31:50;94391.19;;;11.99;40.44
40384;BME280;26097;42.366;23.818;2023-02-18T16:34:51;94396.06;;;12.04;40.36
40384;BME280;26097;42.366;23.818;2023-02-18T16:37:52;94397.09;;;11.90;40.70
40384;BME280;26097;42.366;23.818;2023-02-18T16:40:53;94396.53;;;11.97;40.89
40384;BME280;26097;42.366;23.818;2023-02-18T16:43:54;94411.66;;;12.05;40.90
40384;BME280;26097;42.366;23.818;2023-02-18T16:46:55;94412.47;;;12.06;40.91
40384;BME280;26097;42.366;23.818;2023-02-18T16:49:56;94411.75;;;12.04;40.80
40384;BME280;26097;42.366;23.818;2023-02-18T16:52:59;94401.19;;;12.05;41.03
40384;BME280;26097;42.366;23.818;2023-02-18T16:55:59;94407.50;;;12.14;40.97
40384;BME280;26097;42.366;23.818;2023-02-18T16:59:00;94409.50;;;12.10;40.83
40384;BME280;26097;42.366;23.818;2023-02-18T17:02:01;94412.81;;;12.12;41.23
40384;BME280;26097;42.366;23.818;2023-02-18T17:05:02;94408.09;;;12.06;41.47
40384;BME280;26097;42.366;23.818;2023-02-18T17:08:24;94414.34;;;12.04;41.30
40384;BME280;26097;42.366;23.818;2023-02-18T17:11:28;94413.91;;;12.10;41.26
40384;BME280;26097;42.366;23.818;2023-02-18T17:14:29;94417.09;;;12.13;40.96
40384;BME280;26097;42.366;23.818;2023-02-18T17:17:30;94414.97;;;12.07;41.30
40384;BME280;26097;42.366;23.818;2023-02-18T17:20:31;94410.69;;;12.06;41.37
40384;BME280;26097;42.366;23.818;2023-02-18T17:23:32;94411.31;;;12.10;40.98
40384;BME280;26097;42.366;23.818;2023-02-18T17:26:32;94407.84;;;12.09;41.05
40384;BME280;26097;42.366;23.818;2023-02-18T17:29:33;94427.56;;;12.25;40.86
40384;BME280;26097;42.366;23.818;2023-02-18T17:32:33;94415.47;;;12.24;40.69
40384;BME280;26097;42.366;23.818;2023-02-18T17:35:34;94428.03;;;12.30;40.67
40384;BME280;26097;42.366;23.818;2023-02-18T17:38:34;94427.56;;;12.13;40.58
40384;BME280;26097;42.366;23.818;2023-02-18T17:41:34;94416.28;;;12.24;40.62
40384;BME280;26097;42.366;23.818;2023-02-18T17:44:35;94413.66;;;12.13;40.63
40384;BME280;26097;42.366;23.818;2023-02-18T17:47:36;94409.97;;;12.16;40.30
40384;BME280;26097;42.366;23.818;2023-02-18T17:50:36;94419.47;;;12.05;40.48
40384;BME280;26097;42.366;23.818;2023-02-18T17:53:36;94409.03;;;12.05;40.51
40384;BME280;26097;42.366;23.818;2023-02-18T17:56:37;94408.75;;;11.97;40.36
40384;BME280;26097;42.366;23.818;2023-02-18T17:59:37;94403.81;;;12.05;40.14
40384;BME280;26097;42.366;23.818;2023-02-18T18:02:38;94409.44;;;11.88;40.43
40384;BME280;26097;42.366;23.818;2023-02-18T18:05:39;94404.47;;;11.84;40.71
40384;BME280;26097;42.366;23.818;2023-02-18T18:08:40;94409.19;;;11.68;40.89
40384;BME280;26097;42.366;23.818;2023-02-18T18:11:41;94407.53;;;11.67;41.05
40384;BME280;26097;42.366;23.818;2023-02-18T18:14:41;94401.81;;;11.73;41.09
40384;BME280;26097;42.366;23.818;2023-02-18T18:17:42;94405.25;;;11.62;40.91
40384;BME280;26097;42.366;23.818;2023-02-18T18:20:49;94407.47;;;11.44;41.33
40384;BME280;26097;42.366;23.818;2023-02-18T18:23:50;94393.72;;;11.53;41.40
40384;BME280;26097;42.366;23.818;2023-02-18T18:26:50;94400.97;;;11.61;41.02
40384;BME280;26097;42.366;23.818;2023-02-18T18:29:50;94400.59;;;11.43;41.55
40384;BME280;26097;42.366;23.818;2023-02-18T18:32:51;94399.13;;;11.39;41.65
40384;BME280;26097;42.366;23.818;2023-02-18T18:35:54;94398.22;;;11.40;41.78
40384;BME280;26097;42.366;23.818;2023-02-18T18:38:54;94407.47;;;11.44;41.74